Time;durP1;ratioP1;P1;durP2;ratioP2;P2;SDS_P1;SDS_P2;PMS_P1;PMS_P2;Temp;Humidity;BMP_temperature;BMP_pressure;BME280_temperature;BME280_humidity;BME280_pressure;Samples;Min_cycle;Max_cycle;Signal;HPM_P1;HPM_P2
2023/01/19 00:00:22;;;;;;;9.43;4.80;;;;;;;;;;4977554;28;20030;-72
2023/01/19 00:02:49;;;;;;;5.95;1.85;;;;;;;;;;4976555;28;20022;-72
2023/01/19 00:05:16;;;;;;;9.52;2.10;;;;;;;;;;4973819;28;20101;-71
2023/01/19 00:07:42;;;;;;;8.27;1.60;;;;;;;;;;4976978;28;20030;-72
2023/01/19 00:10:09;;;;;;;4.82;1.33;;;;;;;;;;4978974;28;20031;-72
2023/01/19 00:12:35;;;;;;;6.00;1.30;;;;;;;;;;4976935;28;20014;-71
2023/01/19 00:15:01;;;;;;;9.85;1.65;;;;;;;;;;4979110;28;20026;-71
2023/01/19 00:17:27;;;;;;;8.63;2.13;;;;;;;;;;4982049;28;20026;-71
2023/01/19 00:19:53;;;;;;;4.05;1.02;;;;;;;;;;4980525;28;20045;-71
2023/01/19 00:22:20;;;;;;;6.22;1.30;;;;;;;;;;4981068;28;20026;-71
2023/01/19 00:24:46;;;;;;;3.83;1.20;;;;;;;;;;4981472;28;20030;-72
2023/01/19 00:27:12;;;;;;;9.55;1.40;;;;;;;;;;4979128;28;20023;-71
2023/01/19 00:29:38;;;;;;;7.45;1.08;;;;;;;;;;4978874;28;20038;-70
2023/01/19 00:32:05;;;;;;;8.60;1.05;;;;;;;;;;4979642;28;20060;-69
2023/01/19 00:34:38;;;;;;;6.28;1.30;;;;;;;;;;4982847;28;20056;-71
2023/01/19 00:37:05;;;;;;;9.68;2.30;;;;;;;;;;4974550;28;20026;-70
2023/01/19 00:39:31;;;;;;;11.75;2.28;;;;;;;;;;4978245;28;20650;-70
2023/01/19 00:44:42;;;;;;;7.85;1.30;;;;;;;;;;4982370;28;20093;-71
2023/01/19 00:47:08;;;;;;;5.30;1.48;;;;;;;;;;4980834;28;20049;-71
2023/01/19 00:49:34;;;;;;;7.45;1.55;;;;;;;;;;4980815;28;20034;-70
2023/01/19 00:52:00;;;;;;;2.63;0.80;;;;;;;;;;4978352;28;20532;-71
2023/01/19 00:54:27;;;;;;;7.93;1.40;;;;;;;;;;4985653;28;20037;-71
2023/01/19 00:56:53;;;;;;;5.40;1.10;;;;;;;;;;4982224;28;20022;-71
2023/01/19 00:59:19;;;;;;;4.05;1.00;;;;;;;;;;4969747;28;20435;-71
2023/01/19 01:01:45;;;;;;;9.02;1.33;;;;;;;;;;4974959;28;20479;-72
2023/01/19 01:04:12;;;;;;;12.07;1.70;;;;;;;;;;4970898;28;20672;-71
2023/01/19 01:06:38;;;;;;;6.38;0.90;;;;;;;;;;4976258;28;20023;-71
2023/01/19 01:09:10;;;;;;;10.68;3.90;;;;;;;;;;4972281;28;20038;-71
2023/01/19 01:11:42;;;;;;;5.18;0.80;;;;;;;;;;4965395;28;20085;-72
2023/01/19 01:14:10;;;;;;;5.85;0.93;;;;;;;;;;4972712;28;20034;-71
2023/01/19 01:16:36;;;;;;;3.83;0.93;;;;;;;;;;4975076;28;20041;-72
2023/01/19 01:19:02;;;;;;;4.78;1.30;;;;;;;;;;4973663;28;20042;-71
2023/01/19 01:21:28;;;;;;;3.22;0.52;;;;;;;;;;4970857;28;20088;-73
2023/01/19 01:23:55;;;;;;;6.32;0.80;;;;;;;;;;4973646;28;20051;-71
2023/01/19 01:26:21;;;;;;;3.78;0.95;;;;;;;;;;4974773;28;20019;-72
2023/01/19 01:28:47;;;;;;;4.30;0.88;;;;;;;;;;4972882;28;20049;-72
2023/01/19 01:31:13;;;;;;;5.32;0.90;;;;;;;;;;4973480;28;20467;-72
2023/01/19 01:33:39;;;;;;;7.43;1.08;;;;;;;;;;4971596;28;20025;-71
2023/01/19 01:36:06;;;;;;;2.60;0.80;;;;;;;;;;4972640;28;20108;-71
2023/01/19 01:38:32;;;;;;;10.55;1.38;;;;;;;;;;4970008;28;20054;-72
2023/01/19 01:40:58;;;;;;;2.70;0.85;;;;;;;;;;4974276;28;20597;-71
2023/01/19 01:43:41;;;;;;;4.93;1.27;;;;;;;;;;4972679;28;20553;-71
2023/01/19 01:46:08;;;;;;;2.90;0.70;;;;;;;;;;4972384;28;20092;-71
2023/01/19 01:48:34;;;;;;;6.47;0.98;;;;;;;;;;4973500;28;20049;-71
2023/01/19 01:53:49;;;;;;;3.70;0.77;;;;;;;;;;4974858;28;20081;-71
2023/01/19 01:56:18;;;;;;;4.40;0.75;;;;;;;;;;4971168;28;20398;-72
2023/01/19 01:58:44;;;;;;;2.08;0.55;;;;;;;;;;4979082;28;20032;-72
2023/01/19 02:03:56;;;;;;;3.55;0.90;;;;;;;;;;4974537;28;20105;-72
2023/01/19 02:06:23;;;;;;;4.47;0.82;;;;;;;;;;4976113;28;20620;-72
2023/01/19 02:14:28;;;;;;;2.78;0.82;;;;;;;;;;4979115;28;20033;-70
2023/01/19 02:16:54;;;;;;;7.93;0.90;;;;;;;;;;4974151;28;20089;-71
2023/01/19 02:19:26;;;;;;;1.92;0.50;;;;;;;;;;4972608;28;20057;-72
2023/01/19 02:21:59;;;;;;;7.80;0.65;;;;;;;;;;4971569;28;20018;-71
2023/01/19 02:24:26;;;;;;;7.55;0.95;;;;;;;;;;4972031;28;20499;-71
2023/01/19 02:26:52;;;;;;;3.00;0.80;;;;;;;;;;4979108;28;20105;-72
2023/01/19 02:29:20;;;;;;;3.38;0.55;;;;;;;;;;4978016;28;20022;-70
2023/01/19 02:31:46;;;;;;;4.30;0.77;;;;;;;;;;4980420;28;20428;-71
2023/01/19 02:34:15;;;;;;;6.97;0.75;;;;;;;;;;4975269;28;20019;-71
2023/01/19 02:36:57;;;;;;;7.57;2.00;;;;;;;;;;4978707;28;20033;-71
2023/01/19 02:39:28;;;;;;;5.95;0.60;;;;;;;;;;4977125;28;20138;-71
2023/01/19 02:41:57;;;;;;;1.45;0.52;;;;;;;;;;4983378;28;20050;-71
2023/01/19 02:44:24;;;;;;;4.40;0.40;;;;;;;;;;4976458;28;20026;-72
2023/01/19 02:46:52;;;;;;;3.83;1.33;;;;;;;;;;4980637;28;20024;-71
2023/01/19 02:49:18;;;;;;;1.35;0.30;;;;;;;;;;4978973;28;20041;-71
2023/01/19 02:51:45;;;;;;;2.75;0.60;;;;;;;;;;4979204;28;20034;-71
2023/01/19 02:54:11;;;;;;;1.30;0.60;;;;;;;;;;4970146;28;20566;-71
2023/01/19 02:56:59;;;;;;;3.65;0.50;;;;;;;;;;4977463;28;20038;-71
2023/01/19 02:59:28;;;;;;;4.30;1.02;;;;;;;;;;4975905;28;20031;-71
2023/01/19 03:02:00;;;;;;;2.72;1.67;;;;;;;;;;4979471;28;20033;-70
2023/01/19 03:04:36;;;;;;;5.63;0.98;;;;;;;;;;4975891;28;20058;-71
2023/01/19 03:07:08;;;;;;;3.85;0.57;;;;;;;;;;4981021;28;20033;-71
2023/01/19 03:09:34;;;;;;;;;;;;;;;;;;4982596;28;20514;-71
2023/01/19 03:12:14;;;;;;;1.85;0.40;;;;;;;;;;4985045;28;19953;-72
2023/01/19 03:14:42;;;;;;;3.25;0.77;;;;;;;;;;4981206;28;20515;-71
2023/01/19 03:17:10;;;;;;;2.70;0.50;;;;;;;;;;4982389;28;20052;-71
2023/01/19 03:19:39;;;;;;;2.88;0.43;;;;;;;;;;4977963;28;20019;-71
2023/01/19 03:22:09;;;;;;;4.60;0.50;;;;;;;;;;4981055;28;20110;-71
2023/01/19 03:24:37;;;;;;;3.08;0.40;;;;;;;;;;4978293;28;20094;-71
2023/01/19 03:27:06;;;;;;;6.68;0.85;;;;;;;;;;4978607;28;20054;-70
2023/01/19 03:29:34;;;;;;;1.77;0.40;;;;;;;;;;4976942;28;20031;-71
2023/01/19 03:32:02;;;;;;;1.50;0.38;;;;;;;;;;4977812;28;20029;-71
2023/01/19 03:34:29;;;;;;;2.72;0.50;;;;;;;;;;4977633;28;20031;-71
2023/01/19 03:36:57;;;;;;;3.85;0.50;;;;;;;;;;4983081;28;20026;-71
2023/01/19 03:39:24;;;;;;;4.18;0.47;;;;;;;;;;4984309;28;20022;-71
2023/01/19 03:42:02;;;;;;;2.10;0.47;;;;;;;;;;4985889;28;20430;-71
2023/01/19 03:44:29;;;;;;;2.83;0.65;;;;;;;;;;4983025;28;20022;-71
2023/01/19 03:46:56;;;;;;;3.03;0.30;;;;;;;;;;4981343;28;20054;-71
2023/01/19 03:49:22;;;;;;;6.10;1.10;;;;;;;;;;4982633;28;20096;-71
2023/01/19 03:51:49;;;;;;;3.78;0.70;;;;;;;;;;4980353;28;20035;-71
2023/01/19 03:54:15;;;;;;;4.03;0.50;;;;;;;;;;4984366;28;20026;-70
2023/01/19 03:56:42;;;;;;;1.83;0.45;;;;;;;;;;4983175;28;20042;-72
2023/01/19 03:59:08;;;;;;;5.85;0.80;;;;;;;;;;4982301;28;20711;-71
2023/01/19 04:01:34;;;;;;;1.40;0.40;;;;;;;;;;4983648;28;20031;-71
2023/01/19 04:04:01;;;;;;;5.93;0.45;;;;;;;;;;4978249;28;20157;-71
2023/01/19 04:06:27;;;;;;;3.08;0.65;;;;;;;;;;4984197;28;20026;-70
2023/01/19 04:08:53;;;;;;;3.58;0.47;;;;;;;;;;4981196;28;20035;-71
2023/01/19 04:11:19;;;;;;;2.55;0.50;;;;;;;;;;4979796;28;20038;-72
2023/01/19 04:13:45;;;;;;;1.20;0.30;;;;;;;;;;4973701;28;20030;-71
2023/01/19 04:16:12;;;;;;;1.40;0.40;;;;;;;;;;4979377;28;20033;-72
2023/01/19 04:18:38;;;;;;;3.42;0.52;;;;;;;;;;4973430;28;20541;-71
2023/01/19 04:21:06;;;;;;;3.83;1.17;;;;;;;;;;4977288;28;20033;-71
2023/01/19 04:23:32;;;;;;;3.90;0.40;;;;;;;;;;4969447;28;20030;-71
2023/01/19 04:25:59;;;;;;;2.15;0.13;;;;;;;;;;4982844;28;20022;-71
2023/01/19 04:28:25;;;;;;;2.83;0.57;;;;;;;;;;4979187;28;20522;-71
2023/01/19 04:30:52;;;;;;;1.45;0.30;;;;;;;;;;4978211;28;20035;-71
2023/01/19 04:33:18;;;;;;;3.42;0.40;;;;;;;;;;4981714;28;20025;-72
2023/01/19 04:35:45;;;;;;;4.50;0.50;;;;;;;;;;4979416;28;20045;-71
2023/01/19 04:38:11;;;;;;;1.67;0.43;;;;;;;;;;4981899;28;20030;-72
2023/01/19 04:40:37;;;;;;;1.67;0.47;;;;;;;;;;4978302;28;20434;-72
2023/01/19 04:43:03;;;;;;;3.13;0.70;;;;;;;;;;4979437;28;20475;-71
2023/01/19 04:45:29;;;;;;;3.60;0.80;;;;;;;;;;4974347;28;20459;-71
2023/01/19 04:47:55;;;;;;;1.90;0.45;;;;;;;;;;4976230;28;20655;-71
2023/01/19 04:50:21;;;;;;;1.75;0.30;;;;;;;;;;4974324;28;20049;-71
2023/01/19 04:52:48;;;;;;;1.75;0.30;;;;;;;;;;4969641;28;20049;-72
2023/01/19 04:55:14;;;;;;;6.40;0.65;;;;;;;;;;4974226;28;20498;-71
2023/01/19 04:57:41;;;;;;;4.13;0.68;;;;;;;;;;4971919;28;20018;-71
2023/01/19 05:00:07;;;;;;;4.43;1.05;;;;;;;;;;4976756;28;20097;-71
2023/01/19 05:02:34;;;;;;;2.67;0.50;;;;;;;;;;4973163;28;20026;-72
2023/01/19 05:05:00;;;;;;;2.75;0.52;;;;;;;;;;4974894;28;20144;-71
2023/01/19 05:07:26;;;;;;;5.18;0.57;;;;;;;;;;4971300;28;20053;-70
2023/01/19 05:09:53;;;;;;;1.35;0.30;;;;;;;;;;4971049;28;20062;-71
2023/01/19 05:12:19;;;;;;;2.33;0.60;;;;;;;;;;4974958;28;20030;-71
2023/01/19 05:14:45;;;;;;;0.65;0.30;;;;;;;;;;4969102;28;20034;-71
2023/01/19 05:17:11;;;;;;;2.42;0.57;;;;;;;;;;4976178;28;20022;-71
2023/01/19 05:19:38;;;;;;;2.08;0.40;;;;;;;;;;4970545;28;20039;-72
2023/01/19 05:22:04;;;;;;;3.05;0.30;;;;;;;;;;4974617;28;20018;-71
2023/01/19 05:24:31;;;;;;;1.05;0.30;;;;;;;;;;4973749;28;20026;-72
2023/01/19 05:26:57;;;;;;;0.65;0.40;;;;;;;;;;4974799;28;20027;-71
2023/01/19 05:29:23;;;;;;;0.55;0.30;;;;;;;;;;4976462;28;20037;-71
2023/01/19 05:31:50;;;;;;;1.58;0.50;;;;;;;;;;4972385;28;20065;-71
2023/01/19 05:34:17;;;;;;;5.05;0.63;;;;;;;;;;4974278;28;20032;-71
2023/01/19 05:36:43;;;;;;;2.00;0.32;;;;;;;;;;4972039;28;20035;-71
2023/01/19 05:39:09;;;;;;;2.08;0.38;;;;;;;;;;4972776;28;20026;-70
2023/01/19 05:41:35;;;;;;;2.42;0.43;;;;;;;;;;4970569;28;20019;-71
2023/01/19 05:44:02;;;;;;;3.00;0.50;;;;;;;;;;4974923;28;20027;-72
2023/01/19 05:46:28;;;;;;;0.80;0.30;;;;;;;;;;4971639;28;20138;-71
2023/01/19 05:48:54;;;;;;;2.63;0.50;;;;;;;;;;4971623;28;20046;-71
2023/01/19 05:51:20;;;;;;;2.58;0.80;;;;;;;;;;4972486;28;20044;-69
2023/01/19 05:53:46;;;;;;;1.60;0.88;;;;;;;;;;4973713;28;20126;-71
2023/01/19 05:56:12;;;;;;;2.13;0.60;;;;;;;;;;4972421;28;20042;-71
2023/01/19 05:58:38;;;;;;;2.65;0.35;;;;;;;;;;4974049;28;20034;-70
2023/01/19 06:01:07;;;;;;;3.03;0.40;;;;;;;;;;4973021;28;20023;-71
2023/01/19 06:03:34;;;;;;;2.20;0.60;;;;;;;;;;4979651;28;20028;-71
2023/01/19 06:06:00;;;;;;;2.28;0.35;;;;;;;;;;4978386;28;20049;-70
2023/01/19 06:08:26;;;;;;;1.75;0.52;;;;;;;;;;4977520;28;20019;-70
2023/01/19 06:10:52;;;;;;;1.27;0.40;;;;;;;;;;4978985;28;20039;-71
2023/01/19 06:13:19;;;;;;;15.98;1.17;;;;;;;;;;4976677;28;20028;-71
2023/01/19 06:15:45;;;;;;;4.35;0.60;;;;;;;;;;4978315;28;20394;-71
2023/01/19 06:18:13;;;;;;;9.35;1.75;;;;;;;;;;4976864;28;20501;-71
2023/01/19 06:20:39;;;;;;;5.82;1.00;;;;;;;;;;4973282;28;20026;-71
2023/01/19 06:23:06;;;;;;;2.08;0.47;;;;;;;;;;4977287;28;20031;-71
2023/01/19 06:25:32;;;;;;;3.05;0.80;;;;;;;;;;4977406;28;20040;-73
2023/01/19 06:27:58;;;;;;;3.13;0.40;;;;;;;;;;4973706;28;20031;-71
2023/01/19 06:30:25;;;;;;;2.13;0.50;;;;;;;;;;4978399;28;20038;-72
2023/01/19 06:32:52;;;;;;;4.05;0.55;;;;;;;;;;4972279;28;20066;-72
2023/01/19 06:35:18;;;;;;;1.83;0.50;;;;;;;;;;4976398;28;20096;-72
2023/01/19 06:37:45;;;;;;;3.03;0.93;;;;;;;;;;4974826;28;20029;-72
2023/01/19 06:40:11;;;;;;;3.65;0.60;;;;;;;;;;4974298;28;20072;-72
2023/01/19 06:42:37;;;;;;;13.15;6.18;;;;;;;;;;4980115;28;20030;-73
2023/01/19 06:45:04;;;;;;;3.22;0.80;;;;;;;;;;4976677;28;20034;-72
2023/01/19 06:47:30;;;;;;;0.75;0.40;;;;;;;;;;4978232;28;20030;-72
2023/01/19 06:49:56;;;;;;;2.17;0.30;;;;;;;;;;4974632;28;20038;-72
2023/01/19 06:52:22;;;;;;;2.13;0.40;;;;;;;;;;4984138;28;20065;-72
2023/01/19 06:54:48;;;;;;;1.48;0.57;;;;;;;;;;4975156;28;20046;-72
2023/01/19 06:57:15;;;;;;;1.15;0.35;;;;;;;;;;4977822;28;20029;-71
2023/01/19 06:59:41;;;;;;;2.45;0.20;;;;;;;;;;4983945;28;20023;-72
2023/01/19 07:02:10;;;;;;;1.35;0.95;;;;;;;;;;4977706;28;20034;-72
2023/01/19 07:04:36;;;;;;;1.65;0.43;;;;;;;;;;4981608;28;20041;-73
2023/01/19 07:07:02;;;;;;;2.28;0.22;;;;;;;;;;4979661;28;20027;-73
2023/01/19 07:09:28;;;;;;;1.35;0.10;;;;;;;;;;4981576;28;20022;-73
2023/01/19 07:11:54;;;;;;;0.60;0.10;;;;;;;;;;4981734;28;20065;-71
2023/01/19 07:14:21;;;;;;;1.23;0.32;;;;;;;;;;4978293;28;20096;-73
2023/01/19 07:16:47;;;;;;;2.33;1.20;;;;;;;;;;4983547;28;20031;-72
2023/01/19 07:19:14;;;;;;;1.95;0.60;;;;;;;;;;4978273;28;20030;-73
2023/01/19 07:21:40;;;;;;;3.30;0.45;;;;;;;;;;4976015;28;20057;-73
2023/01/19 07:24:06;;;;;;;0.45;0.20;;;;;;;;;;4975755;28;20029;-73
2023/01/19 07:26:32;;;;;;;0.60;0.20;;;;;;;;;;4977624;28;20026;-73
2023/01/19 07:28:58;;;;;;;0.95;0.30;;;;;;;;;;4977567;28;20029;-73
2023/01/19 07:31:24;;;;;;;0.82;0.30;;;;;;;;;;4980266;28;20033;-73
2023/01/19 07:33:51;;;;;;;1.20;0.17;;;;;;;;;;4974215;28;20023;-73
2023/01/19 07:36:17;;;;;;;2.67;0.30;;;;;;;;;;4977165;28;20051;-72
2023/01/19 07:38:43;;;;;;;1.60;0.40;;;;;;;;;;4974397;28;20030;-73
2023/01/19 07:41:10;;;;;;;1.35;0.32;;;;;;;;;;4972012;28;20030;-74
2023/01/19 07:43:36;;;;;;;3.53;0.60;;;;;;;;;;4978125;28;20030;-74
2023/01/19 07:46:03;;;;;;;2.83;0.60;;;;;;;;;;4976564;28;20024;-74
2023/01/19 07:48:29;;;;;;;1.30;0.60;;;;;;;;;;4974319;28;20034;-75
2023/01/19 07:51:00;;;;;;;2.22;0.75;;;;;;;;;;4978372;28;20038;-75
2023/01/19 07:53:26;;;;;;;1.70;0.57;;;;;;;;;;4980044;28;20046;-76
2023/01/19 07:55:56;;;;;;;2.55;0.60;;;;;;;;;;4972867;28;20499;-76
2023/01/19 07:58:25;;;;;;;1.38;0.63;;;;;;;;;;4979737;28;20118;-76
2023/01/19 08:00:51;;;;;;;2.13;0.80;;;;;;;;;;4980785;28;20023;-76
2023/01/19 08:03:17;;;;;;;2.90;0.40;;;;;;;;;;4979550;28;20027;-76
2023/01/19 08:05:44;;;;;;;1.45;0.50;;;;;;;;;;4977860;28;20122;-76
2023/01/19 08:08:11;;;;;;;3.03;1.00;;;;;;;;;;4979984;28;20778;-77
2023/01/19 08:10:37;;;;;;;2.25;0.50;;;;;;;;;;4981010;28;20116;-78
2023/01/19 08:13:04;;;;;;;2.35;0.40;;;;;;;;;;4979195;28;20040;-78
2023/01/19 08:15:30;;;;;;;3.28;0.40;;;;;;;;;;4981175;28;20073;-78
2023/01/19 08:17:57;;;;;;;1.65;0.30;;;;;;;;;;4976409;28;20166;-79
2023/01/19 08:20:24;;;;;;;2.97;0.52;;;;;;;;;;4975330;28;20133;-79
2023/01/19 08:22:58;;;;;;;2.63;0.47;;;;;;;;;;4977931;28;20030;-78
2023/01/19 08:25:24;;;;;;;2.22;0.45;;;;;;;;;;4973009;28;20856;-79
2023/01/19 08:27:53;;;;;;;2.13;0.30;;;;;;;;;;4976535;28;20033;-79
2023/01/19 08:30:19;;;;;;;1.48;0.50;;;;;;;;;;4974315;28;20190;-79
2023/01/19 08:32:45;;;;;;;5.22;1.02;;;;;;;;;;4981680;28;20870;-79
2023/01/19 08:35:11;;;;;;;2.25;0.45;;;;;;;;;;4973903;28;20640;-78
2023/01/19 08:37:38;;;;;;;5.05;0.40;;;;;;;;;;4974882;28;20557;-78
2023/01/19 08:40:04;;;;;;;3.90;0.75;;;;;;;;;;4976227;28;20027;-78
2023/01/19 08:42:30;;;;;;;1.25;0.40;;;;;;;;;;4973578;28;20026;-78
2023/01/19 08:44:56;;;;;;;1.75;0.65;;;;;;;;;;4975740;28;20077;-78
2023/01/19 08:47:22;;;;;;;3.72;0.75;;;;;;;;;;4974971;28;20463;-79
2023/01/19 08:49:49;;;;;;;0.70;0.30;;;;;;;;;;4976241;28;20034;-78
2023/01/19 08:52:15;;;;;;;1.80;0.30;;;;;;;;;;4974035;28;20027;-79
2023/01/19 08:54:41;;;;;;;1.45;0.40;;;;;;;;;;4977629;28;20018;-77
2023/01/19 08:57:07;;;;;;;0.32;0.20;;;;;;;;;;4977508;28;20018;-77
2023/01/19 08:59:33;;;;;;;0.90;0.40;;;;;;;;;;4975877;28;20238;-78
2023/01/19 09:01:59;;;;;;;0.95;0.40;;;;;;;;;;4974943;28;20037;-78
2023/01/19 09:04:26;;;;;;;1.02;0.40;;;;;;;;;;4973391;28;20050;-78
2023/01/19 09:06:52;;;;;;;0.22;0.20;;;;;;;;;;4974193;28;20060;-77
2023/01/19 09:09:18;;;;;;;0.70;0.28;;;;;;;;;;4975917;28;20026;-78
2023/01/19 09:11:45;;;;;;;1.65;0.17;;;;;;;;;;4975345;28;20042;-78
2023/01/19 09:14:11;;;;;;;0.68;0.10;;;;;;;;;;4975655;28;20033;-78
2023/01/19 09:16:37;;;;;;;6.22;0.55;;;;;;;;;;4976638;28;20117;-78
2023/01/19 09:19:03;;;;;;;1.42;0.10;;;;;;;;;;4972080;28;20498;-78
2023/01/19 09:21:29;;;;;;;0.00;0.00;;;;;;;;;;4975678;28;20031;-78
2023/01/19 09:23:56;;;;;;;0.10;0.03;;;;;;;;;;4973641;28;20038;-77
2023/01/19 09:26:22;;;;;;;0.43;0.10;;;;;;;;;;4975399;28;20153;-78
2023/01/19 09:28:49;;;;;;;0.30;0.10;;;;;;;;;;4975046;28;20400;-77
2023/01/19 09:31:15;;;;;;;0.13;0.00;;;;;;;;;;4974070;28;20153;-78
2023/01/19 09:33:41;;;;;;;0.00;0.00;;;;;;;;;;4975383;28;20027;-77
2023/01/19 09:36:07;;;;;;;0.30;0.00;;;;;;;;;;4975307;28;20487;-78
2023/01/19 09:38:33;;;;;;;0.03;0.00;;;;;;;;;;4982298;28;20018;-78
2023/01/19 09:41:00;;;;;;;0.00;0.00;;;;;;;;;;4981241;28;20026;-78
2023/01/19 09:43:26;;;;;;;0.03;0.00;;;;;;;;;;4978749;28;20022;-78
2023/01/19 09:45:57;;;;;;;0.00;0.00;;;;;;;;;;4979035;28;20046;-78
2023/01/19 09:48:26;;;;;;;0.00;0.00;;;;;;;;;;4981040;28;20419;-79
2023/01/19 09:50:55;;;;;;;0.00;0.00;;;;;;;;;;4979205;28;20431;-79
2023/01/19 09:53:35;;;;;;;0.15;0.00;;;;;;;;;;4975913;28;20077;-78
2023/01/19 09:56:01;;;;;;;0.00;0.00;;;;;;;;;;4977660;28;20018;-77
2023/01/19 09:58:28;;;;;;;0.00;0.00;;;;;;;;;;4976820;28;20014;-77
2023/01/19 10:01:03;;;;;;;0.13;0.08;;;;;;;;;;4979046;28;20026;-77
2023/01/19 10:03:30;;;;;;;0.17;0.10;;;;;;;;;;4978335;28;20011;-77
2023/01/19 10:06:02;;;;;;;0.30;0.20;;;;;;;;;;4979489;28;20486;-78
2023/01/19 10:08:36;;;;;;;0.63;0.30;;;;;;;;;;4976169;28;20023;-78
2023/01/19 10:11:05;;;;;;;1.65;0.50;;;;;;;;;;4979597;28;20034;-77
2023/01/19 10:13:51;;;;;;;1.92;0.40;;;;;;;;;;4975950;28;20019;-78
2023/01/19 10:16:36;;;;;;;1.55;0.28;;;;;;;;;;4975093;28;20113;-77
2023/01/19 10:19:12;;;;;;;2.10;0.45;;;;;;;;;;4976930;28;20023;-77
2023/01/19 10:21:42;;;;;;;2.72;0.38;;;;;;;;;;4980172;28;20066;-78
2023/01/19 10:24:12;;;;;;;1.15;0.20;;;;;;;;;;4979467;28;20593;-78
2023/01/19 10:26:43;;;;;;;0.32;0.20;;;;;;;;;;4978892;28;20035;-78
2023/01/19 10:29:27;;;;;;;0.53;0.10;;;;;;;;;;4978796;28;20333;-78
2023/01/19 10:32:16;;;;;;;3.47;0.32;;;;;;;;;;4978264;28;20440;-77
2023/01/19 10:34:42;;;;;;;2.08;0.47;;;;;;;;;;4979202;28;20033;-78
2023/01/19 10:37:18;;;;;;;0.80;0.35;;;;;;;;;;4980034;28;20029;-77
2023/01/19 10:39:52;;;;;;;2.47;0.38;;;;;;;;;;4978564;28;20113;-77
2023/01/19 10:42:18;;;;;;;3.83;0.32;;;;;;;;;;4975584;28;20430;-75
2023/01/19 10:44:45;;;;;;;1.38;0.75;;;;;;;;;;4977669;28;20105;-80
2023/01/19 10:47:16;;;;;;;1.75;0.20;;;;;;;;;;4976279;28;20421;-80
2023/01/19 10:49:42;;;;;;;1.23;0.13;;;;;;;;;;4982076;28;20098;-79
2023/01/19 10:52:19;;;;;;;1.90;0.20;;;;;;;;;;4980741;28;20775;-80
2023/01/19 10:54:47;;;;;;;2.33;0.43;;;;;;;;;;4982472;28;20041;-79
2023/01/19 10:57:20;;;;;;;1.88;0.40;;;;;;;;;;4981090;28;20109;-79
2023/01/19 10:59:50;;;;;;;2.45;0.90;;;;;;;;;;4979570;28;20035;-79
2023/01/19 11:02:21;;;;;;;5.28;0.90;;;;;;;;;;4979617;28;20550;-79
2023/01/19 11:04:48;;;;;;;4.25;1.50;;;;;;;;;;4981089;28;20054;-78
2023/01/19 11:07:18;;;;;;;3.78;1.40;;;;;;;;;;4981373;28;20033;-79
2023/01/19 11:09:44;;;;;;;2.63;1.05;;;;;;;;;;4979460;28;20030;-79
2023/01/19 11:12:18;;;;;;;2.30;1.05;;;;;;;;;;4981914;28;20033;-78
2023/01/19 11:14:44;;;;;;;2.28;0.98;;;;;;;;;;4980666;28;20039;-77
2023/01/19 11:17:22;;;;;;;3.78;1.02;;;;;;;;;;4982270;28;20030;-76
2023/01/19 11:19:56;;;;;;;2.92;0.80;;;;;;;;;;4980761;28;20154;-76
2023/01/19 11:22:25;;;;;;;1.13;0.70;;;;;;;;;;4979754;28;20015;-76
2023/01/19 11:24:52;;;;;;;3.45;0.90;;;;;;;;;;4979726;28;20101;-76
2023/01/19 11:27:21;;;;;;;2.45;0.60;;;;;;;;;;4981912;28;20522;-76
2023/01/19 11:29:56;;;;;;;2.60;0.70;;;;;;;;;;4977713;28;20042;-75
2023/01/19 11:32:23;;;;;;;2.78;0.73;;;;;;;;;;4980035;28;20061;-74
2023/01/19 11:34:50;;;;;;;2.67;0.77;;;;;;;;;;4977349;28;20023;-75
2023/01/19 11:37:16;;;;;;;4.75;1.17;;;;;;;;;;4978589;28;20033;-75
2023/01/19 11:39:57;;;;;;;20.80;2.00;;;;;;;;;;4977443;28;20054;-76
2023/01/19 11:42:24;;;;;;;6.28;0.88;;;;;;;;;;4980349;28;20526;-76
2023/01/19 11:44:56;;;;;;;2.72;0.85;;;;;;;;;;4983409;28;20415;-77
2023/01/19 11:47:30;;;;;;;3.92;1.00;;;;;;;;;;4979827;28;20022;-78
2023/01/19 11:50:05;;;;;;;7.82;1.00;;;;;;;;;;4982298;28;20039;-76
2023/01/19 11:52:52;;;;;;;3.42;0.57;;;;;;;;;;4976961;28;20014;-77
2023/01/19 11:55:36;;;;;;;5.22;0.98;;;;;;;;;;4978282;28;20030;-77
2023/01/19 11:58:02;;;;;;;4.85;0.90;;;;;;;;;;4980635;28;20021;-77
2023/01/19 12:00:30;;;;;;;5.18;0.68;;;;;;;;;;4979267;28;20490;-75
2023/01/19 12:03:02;;;;;;;3.80;0.93;;;;;;;;;;4978800;28;20034;-77
2023/01/19 12:05:31;;;;;;;5.43;0.68;;;;;;;;;;4981788;28;20141;-79
2023/01/19 12:08:00;;;;;;;3.53;0.63;;;;;;;;;;4977899;28;20027;-79
2023/01/19 12:10:28;;;;;;;1.08;0.43;;;;;;;;;;4981116;28;20038;-78
2023/01/19 12:12:56;;;;;;;7.22;1.13;;;;;;;;;;4979746;28;20023;-81
2023/01/19 12:15:31;;;;;;;4.10;0.80;;;;;;;;;;4981766;28;20025;-78
2023/01/19 12:17:58;;;;;;;4.82;1.00;;;;;;;;;;4981241;28;20117;-78
2023/01/19 12:20:37;;;;;;;5.88;1.10;;;;;;;;;;4979787;28;20049;-78
2023/01/19 12:23:25;;;;;;;4.47;0.77;;;;;;;;;;4978578;28;20050;-79
2023/01/19 12:26:03;;;;;;;6.90;1.08;;;;;;;;;;4978460;28;20019;-78
2023/01/19 12:28:34;;;;;;;4.80;0.98;;;;;;;;;;4977899;28;20030;-77
2023/01/19 12:31:01;;;;;;;2.77;0.70;;;;;;;;;;4982465;28;20030;-77
2023/01/19 12:33:35;;;;;;;5.50;0.85;;;;;;;;;;4976256;28;20248;-78
2023/01/19 12:36:05;;;;;;;3.53;1.00;;;;;;;;;;4979034;28;20044;-77
2023/01/19 12:38:36;;;;;;;4.65;0.80;;;;;;;;;;4982993;28;20041;-78
2023/01/19 12:41:14;;;;;;;3.80;0.80;;;;;;;;;;4975222;28;20041;-78
2023/01/19 12:43:41;;;;;;;1.58;0.82;;;;;;;;;;4978348;28;20037;-78
2023/01/19 12:46:27;;;;;;;1.20;0.77;;;;;;;;;;4983887;28;20447;-78
2023/01/19 12:48:53;;;;;;;2.22;0.75;;;;;;;;;;4976053;28;20050;-78
2023/01/19 12:51:26;;;;;;;6.88;0.52;;;;;;;;;;4983757;28;20030;-77
2023/01/19 12:53:57;;;;;;;3.65;0.70;;;;;;;;;;4978801;28;20023;-77
2023/01/19 12:56:29;;;;;;;0.73;0.40;;;;;;;;;;4975049;28;20030;-77
2023/01/19 12:58:55;;;;;;;;;;;;;;;;;;4978343;28;20109;-77
2023/01/19 13:01:23;;;;;;;1.45;0.20;;;;;;;;;;4981132;28;20470;-78
2023/01/19 13:03:59;;;;;;;1.35;0.22;;;;;;;;;;4978459;28;20049;-77
2023/01/19 13:06:43;;;;;;;2.83;0.50;;;;;;;;;;4979630;28;20030;-77
2023/01/19 13:09:28;;;;;;;6.90;1.38;;;;;;;;;;4981316;28;20464;-77
2023/01/19 13:12:12;;;;;;;2.03;0.63;;;;;;;;;;4975427;28;20066;-77
2023/01/19 13:14:39;;;;;;;1.42;0.50;;;;;;;;;;4975082;28;20117;-77
2023/01/19 13:17:24;;;;;;;10.63;0.95;;;;;;;;;;4976766;28;20022;-78
2023/01/19 13:20:22;;;;;;;1.10;0.30;;;;;;;;;;4974577;28;20026;-77
2023/01/19 13:22:48;;;;;;;1.27;0.30;;;;;;;;;;4956795;28;20049;-77
2023/01/19 13:25:24;;;;;;;0.90;0.52;;;;;;;;;;4978955;28;20117;-77
2023/01/19 13:27:50;;;;;;;2.25;0.50;;;;;;;;;;4975681;28;20022;-77
2023/01/19 13:30:17;;;;;;;1.60;0.50;;;;;;;;;;4983153;28;20065;-77
2023/01/19 13:32:44;;;;;;;0.40;0.38;;;;;;;;;;4979343;28;20018;-77
2023/01/19 13:35:19;;;;;;;3.08;0.40;;;;;;;;;;4979907;28;20076;-77
2023/01/19 13:37:46;;;;;;;0.47;0.20;;;;;;;;;;4977304;28;20029;-77
2023/01/19 13:40:18;;;;;;;1.45;0.43;;;;;;;;;;4982576;28;20049;-77
2023/01/19 13:42:45;;;;;;;2.15;0.68;;;;;;;;;;4976380;28;20103;-77
2023/01/19 13:45:17;;;;;;;5.72;0.57;;;;;;;;;;4975800;28;20497;-77
2023/01/19 13:47:47;;;;;;;1.08;0.38;;;;;;;;;;4980185;28;20026;-78
2023/01/19 13:50:25;;;;;;;3.10;0.50;;;;;;;;;;4976871;28;20034;-76
2023/01/19 13:52:54;;;;;;;3.15;0.47;;;;;;;;;;4977714;28;20014;-77
2023/01/19 13:55:21;;;;;;;4.15;0.60;;;;;;;;;;4977759;28;20014;-77
2023/01/19 13:57:48;;;;;;;4.80;0.45;;;;;;;;;;4979269;28;20391;-77
2023/01/19 14:00:17;;;;;;;3.67;0.40;;;;;;;;;;4977351;28;20031;-77
2023/01/19 14:02:53;;;;;;;0.75;0.25;;;;;;;;;;4982028;28;20062;-77
2023/01/19 14:05:21;;;;;;;1.77;0.30;;;;;;;;;;4977073;28;20214;-75
2023/01/19 14:07:47;;;;;;;2.85;0.40;;;;;;;;;;4977162;28;20525;-76
2023/01/19 14:10:15;;;;;;;0.77;0.30;;;;;;;;;;4977262;28;20165;-78
2023/01/19 14:12:42;;;;;;;5.10;0.93;;;;;;;;;;4976565;28;20041;-78
2023/01/19 14:15:13;;;;;;;2.75;0.50;;;;;;;;;;4977336;28;20023;-78
2023/01/19 14:17:42;;;;;;;1.83;0.47;;;;;;;;;;4976904;28;20065;-79
2023/01/19 14:20:28;;;;;;;2.25;0.55;;;;;;;;;;4977035;28;20027;-80
2023/01/19 14:22:59;;;;;;;1.95;0.65;;;;;;;;;;4973587;28;20089;-79
2023/01/19 14:25:28;;;;;;;0.90;0.25;;;;;;;;;;4984853;28;20023;-83
2023/01/19 14:28:13;;;;;;;1.45;0.60;;;;;;;;;;4983425;28;20070;-87
2023/01/19 14:30:39;;;;;;;2.25;0.70;;;;;;;;;;4984709;28;20053;-75
2023/01/19 14:33:06;;;;;;;2.83;0.55;;;;;;;;;;4976104;28;20027;-78
2023/01/19 14:35:33;;;;;;;1.88;0.70;;;;;;;;;;4983680;28;20026;-76
2023/01/19 14:37:59;;;;;;;1.38;0.40;;;;;;;;;;4978255;28;20015;-78
2023/01/19 14:40:26;;;;;;;0.68;0.30;;;;;;;;;;4983240;28;20088;-77
2023/01/19 14:42:53;;;;;;;3.78;0.50;;;;;;;;;;4979280;28;20051;-76
2023/01/19 14:45:19;;;;;;;1.35;0.40;;;;;;;;;;4984619;28;20761;-75
2023/01/19 14:47:52;;;;;;;5.90;0.60;;;;;;;;;;4983545;28;20048;-76
2023/01/19 14:50:18;;;;;;;4.22;0.52;;;;;;;;;;4982788;28;20034;-75
2023/01/19 14:52:49;;;;;;;3.35;0.55;;;;;;;;;;4978518;28;20510;-75
2023/01/19 14:55:19;;;;;;;4.32;0.98;;;;;;;;;;4973674;28;20058;-76
2023/01/19 14:57:45;;;;;;;5.38;0.80;;;;;;;;;;4978776;28;20030;-76
2023/01/19 15:00:16;;;;;;;2.38;0.80;;;;;;;;;;4980019;28;20033;-76
2023/01/19 15:02:43;;;;;;;2.47;0.40;;;;;;;;;;4980512;28;20037;-77
2023/01/19 15:05:09;;;;;;;3.35;0.65;;;;;;;;;;4978631;28;20051;-74